Time;durP1;ratioP1;P1;durP2;ratioP2;P2;SDS_P1;SDS_P2;PMS_P1;PMS_P2;Temp;Humidity;BMP_temperature;BMP_pressure;BME280_temperature;BME280_humidity;BME280_pressure;Samples;Min_cycle;Max_cycle;Signal;HPM_P1;HPM_P2
2022/01/23 00:01:33;;;;;;;16.08;11.98;;;;;;;15.20;42.75;94317.59;4977901;28;20506;-86
2022/01/23 00:03:58;;;;;;;19.02;12.93;;;;;;;15.18;42.23;94322.75;4939534;28;20039;-86
2022/01/23 00:06:23;;;;;;;17.35;11.68;;;;;;;15.19;42.81;94319.56;4953095;28;20039;-87
2022/01/23 00:08:49;;;;;;;15.32;9.80;;;;;;;15.18;43.16;94326.22;4953775;28;20043;-86
2022/01/23 00:11:15;;;;;;;12.57;9.75;;;;;;;15.21;42.20;94319.84;4953323;28;20043;-86
2022/01/23 00:19:11;;;;;;;17.00;11.18;;;;;;;15.18;42.86;94328.22;4953857;28;20050;-87
2022/01/23 00:21:39;;;;;;;19.48;13.75;;;;;;;15.17;42.92;94330.19;4955533;28;20031;-86
2022/01/23 00:31:58;;;;;;;17.48;12.02;;;;;;;15.22;42.73;94340.44;4955308;28;20050;-87
2022/01/23 00:34:24;;;;;;;21.05;12.98;;;;;;;15.21;42.78;94340.91;4955112;28;20039;-87
2022/01/23 00:36:50;;;;;;;14.63;10.10;;;;;;;15.19;42.89;94344.09;4954203;28;20562;-87
2022/01/23 00:39:15;;;;;;;16.55;10.68;;;;;;;15.24;42.86;94345.41;4954372;28;20207;-87
2022/01/23 00:41:40;;;;;;;19.98;13.00;;;;;;;15.22;42.64;94353.28;4937712;29;20388;-86
2022/01/23 00:44:06;;;;;;;22.20;12.57;;;;;;;15.21;42.87;94347.09;4954915;28;20035;-86
2022/01/23 00:46:37;;;;;;;17.13;12.38;;;;;;;15.17;42.82;94349.25;4954560;28;20043;-86
2022/01/23 00:51:30;;;;;;;13.75;9.88;;;;;;;15.22;43.00;94345.88;4954213;28;19922;-86
2022/01/23 00:53:56;;;;;;;16.75;11.75;;;;;;;15.28;42.50;94348.72;4938303;28;20044;-86
2022/01/23 00:56:21;;;;;;;13.85;10.15;;;;;;;15.23;42.75;94346.63;4937593;28;20587;-86
2022/01/23 00:58:47;;;;;;;13.82;10.18;;;;;;;15.25;42.86;94352.38;4953569;28;20035;-86
2022/01/23 01:01:13;;;;;;;15.85;11.57;;;;;;;15.23;42.77;94352.81;4933336;28;20619;-85
2022/01/23 01:03:40;;;;;;;15.48;10.75;;;;;;;15.21;43.21;94354.50;4942425;28;20071;-86
2022/01/23 01:06:05;;;;;;;13.65;9.82;;;;;;;15.21;42.32;94357.22;4937246;28;20039;-86
2022/01/23 01:08:31;;;;;;;12.20;9.23;;;;;;;15.19;43.08;94348.78;4953946;28;20052;-87
2022/01/23 01:13:57;;;;;;;16.17;11.63;;;;;;;15.25;42.79;94355.09;4953609;28;20043;-86
2022/01/23 01:35:15;;;;;;;16.80;11.15;;;;;;;15.21;42.94;94371.59;4953129;28;20077;-87
2022/01/23 01:37:41;;;;;;;13.65;10.30;;;;;;;15.17;43.35;94373.00;4938477;28;20043;-86
2022/01/23 01:40:07;;;;;;;14.70;10.57;;;;;;;15.18;42.83;94375.25;4936569;28;20042;-86
2022/01/23 01:42:32;;;;;;;13.25;10.00;;;;;;;15.18;43.31;94369.81;4954490;28;20039;-86
2022/01/23 01:44:58;;;;;;;15.35;11.23;;;;;;;15.24;42.92;94375.38;4952815;28;20039;-87
2022/01/23 01:47:23;;;;;;;16.58;11.73;;;;;;;15.20;42.88;94372.06;4952969;28;20035;-86
2022/01/23 01:49:48;;;;;;;14.43;10.10;;;;;;;15.22;42.93;94378.56;4952958;28;20490;-86
2022/01/23 01:52:14;;;;;;;17.50;12.00;;;;;;;15.22;42.93;94384.00;4951961;28;20090;-87
2022/01/23 01:54:40;;;;;;;12.05;8.90;;;;;;;15.20;42.92;94380.25;4952748;28;20039;-86
2022/01/23 01:57:08;;;;;;;17.25;12.40;;;;;;;15.18;42.89;94377.97;4952124;28;20520;-85
2022/01/23 02:10:25;;;;;;;16.25;11.43;;;;;;;15.19;43.02;94371.31;4936535;28;20042;-86
2022/01/23 02:13:07;;;;;;;13.18;9.57;;;;;;;15.21;43.04;94374.31;4950290;28;20043;-88
2022/01/23 02:18:32;;;;;;;;;;;;;;;;;;;;;
2022/01/23 02:50:55;;;;;;;14.23;10.18;;;;;;;15.21;42.73;94371.59;4933286;28;20055;-86
2022/01/23 02:55:59;;;;;;;13.75;9.25;;;;;;;15.20;43.10;94369.34;4918562;29;20099;-87
2022/01/23 02:58:32;;;;;;;14.57;10.57;;;;;;;15.21;43.05;94371.59;4916222;29;20032;-87
2022/01/23 03:01:17;;;;;;;16.58;10.45;;;;;;;15.22;42.79;94375.84;4918034;29;20112;-87
2022/01/23 03:03:46;;;;;;;16.45;10.85;;;;;;;15.21;42.98;94373.56;4919180;28;20039;-87
2022/01/23 03:09:06;;;;;;;14.75;10.68;;;;;;;15.20;43.17;94372.81;4918105;29;20388;-86
2022/01/23 03:14:25;;;;;;;13.80;10.27;;;;;;;15.23;42.99;94376.59;4933269;28;20050;-87
2022/01/23 03:25:31;;;;;;;;;;;;;;;;;;;;;
2022/01/23 03:28:04;;;;;;;17.02;10.88;;;;;;;15.20;43.01;94374.78;4955787;28;20043;-87
2022/01/23 03:30:25;;;;;;;13.02;9.45;;;;;;;15.28;42.92;94375.94;4954750;28;20106;-86
2022/01/23 03:32:52;;;;;;;20.15;12.23;;;;;;;15.24;42.86;94369.94;4957869;28;20070;-88
2022/01/23 03:35:18;;;;;;;13.63;10.55;;;;;;;15.21;42.74;94370.84;4954961;28;20039;-88
2022/01/23 03:37:45;;;;;;;15.55;10.43;;;;;;;15.21;43.06;94360.72;4939908;28;20039;-86
2022/01/23 03:40:11;;;;;;;14.60;10.30;;;;;;;15.23;43.13;94365.69;4954925;28;20035;-87
2022/01/23 03:42:39;;;;;;;22.25;14.90;;;;;;;15.23;43.06;94371.91;4955059;28;20039;-86
2022/01/23 03:47:38;;;;;;;14.00;11.32;;;;;;;15.20;43.16;94372.06;4939911;28;20094;-86
2022/01/23 03:50:06;;;;;;;14.27;9.82;;;;;;;15.17;43.01;94364.81;4956098;28;20040;-87
2022/01/23 03:52:31;;;;;;;18.63;12.27;;;;;;;15.21;42.85;94379.78;4955144;28;20371;-86
2022/01/23 03:54:56;;;;;;;14.55;10.43;;;;;;;15.24;43.07;94378.09;4956718;28;20035;-85
2022/01/23 03:57:23;;;;;;;13.60;10.27;;;;;;;15.20;43.30;94374.78;4956959;28;20035;-87
2022/01/23 03:59:48;;;;;;;15.88;10.90;;;;;;;15.23;42.81;94373.88;4956243;28;20039;-87
2022/01/23 04:02:14;;;;;;;12.27;9.32;;;;;;;15.19;43.07;94376.00;4955556;28;20541;-87
2022/01/23 04:04:40;;;;;;;14.25;10.25;;;;;;;15.22;43.21;94380.53;4956614;28;20047;-86
2022/01/23 04:07:12;;;;;;;13.93;10.43;;;;;;;15.21;43.01;94381.75;4939632;28;20396;-86
2022/01/23 04:09:39;;;;;;;14.73;10.30;;;;;;;15.21;43.16;94389.91;4939566;28;20063;-86
2022/01/23 04:12:09;;;;;;;14.18;9.80;;;;;;;15.23;42.98;94390.97;4956032;28;20701;-86
2022/01/23 04:14:36;;;;;;;11.63;8.48;;;;;;;15.21;43.09;94398.09;4939310;28;20035;-87
2022/01/23 04:17:58;;;;;;;13.93;9.50;;;;;;;15.22;43.04;94389.47;4955896;28;20035;-87
2022/01/23 05:00:48;;;;;;;19.00;12.73;;;;;;;15.21;43.38;94398.84;4884029;29;20103;-86
2022/01/23 05:06:02;;;;;;;17.00;11.50;;;;;;;15.18;42.82;94397.03;4889796;29;20071;-87
2022/01/23 05:08:29;;;;;;;14.50;10.57;;;;;;;15.18;43.29;94399.78;4934556;29;20119;-88
2022/01/23 05:10:58;;;;;;;16.63;10.85;;;;;;;15.21;43.79;94392.63;4903765;29;20036;-88
2022/01/23 05:13:24;;;;;;;15.35;11.55;;;;;;;15.21;42.96;94401.56;4918748;29;20043;-87
2022/01/23 05:15:50;;;;;;;15.82;12.10;;;;;;;15.22;43.35;94399.59;4903944;29;20036;-88
2022/01/23 05:18:15;;;;;;;13.45;9.45;;;;;;;15.23;43.10;94409.28;4955073;28;20050;-88
2022/01/23 05:20:42;;;;;;;15.63;11.52;;;;;;;15.16;43.26;94409.63;4942511;28;20066;-87
2022/01/23 05:23:07;;;;;;;15.45;11.85;;;;;;;15.16;42.71;94404.16;4957525;28;20085;-88
2022/01/23 05:25:36;;;;;;;12.43;9.27;;;;;;;15.22;43.17;94416.69;4972381;28;20570;-87
2022/01/23 05:28:01;;;;;;;14.90;10.38;;;;;;;15.16;43.60;94413.09;4956517;28;20173;-87
2022/01/23 05:30:26;;;;;;;13.98;9.80;;;;;;;15.19;43.09;94422.31;4940188;28;20049;-87
2022/01/23 05:32:52;;;;;;;13.55;10.15;;;;;;;15.21;43.37;94433.50;4954201;28;20058;-87
2022/01/23 05:35:19;;;;;;;12.95;9.55;;;;;;;15.23;43.24;94426.38;4956272;28;20105;-88
2022/01/23 05:37:46;;;;;;;15.90;11.60;;;;;;;15.19;43.02;94441.38;4938802;29;20063;-86
2022/01/23 05:40:14;;;;;;;19.52;12.50;;;;;;;15.20;42.87;94438.19;4934609;28;20086;-87
2022/01/23 05:42:39;;;;;;;19.92;13.57;;;;;;;15.22;43.26;94437.72;4920642;29;20040;-88
2022/01/23 05:45:05;;;;;;;17.98;12.90;;;;;;;15.18;43.06;94427.00;4919943;28;20036;-87
2022/01/23 05:47:30;;;;;;;16.27;10.35;;;;;;;15.15;43.23;94430.69;4920473;29;20032;-88
2022/01/23 05:49:56;;;;;;;15.38;10.13;;;;;;;15.22;43.13;94429.56;4935082;28;20047;-87
2022/01/23 05:52:21;;;;;;;14.65;11.20;;;;;;;15.20;43.29;94438.19;4920270;28;20036;-87
2022/01/23 05:54:46;;;;;;;14.43;10.43;;;;;;;15.22;43.31;94435.75;4951467;28;20052;-88
2022/01/23 05:57:12;;;;;;;15.38;11.15;;;;;;;15.23;43.11;94433.78;4950039;28;20048;-87
2022/01/23 05:59:37;;;;;;;19.15;11.68;;;;;;;15.17;43.17;94439.13;4935327;28;20043;-88
2022/01/23 06:02:03;;;;;;;15.95;11.90;;;;;;;15.18;43.27;94435.19;4952708;28;20044;-87
2022/01/23 06:04:28;;;;;;;14.18;10.90;;;;;;;15.17;43.27;94441.84;4955057;28;20035;-87
2022/01/23 06:06:56;;;;;;;13.18;9.77;;;;;;;15.22;43.01;94435.00;4955518;28;20517;-87
2022/01/23 06:09:22;;;;;;;15.15;10.10;;;;;;;15.22;43.33;94437.72;4953622;28;20032;-88
2022/01/23 06:11:47;;;;;;;13.20;9.50;;;;;;;15.22;42.98;94441.22;4936370;28;20518;-87
2022/01/23 06:14:13;;;;;;;14.48;10.32;;;;;;;15.22;43.00;94440.44;4954710;28;20296;-88
2022/01/23 06:16:38;;;;;;;17.67;12.25;;;;;;;15.22;42.99;94443.19;4933844;29;20047;-88
2022/01/23 06:19:03;;;;;;;14.43;11.40;;;;;;;15.22;43.07;94449.38;4935108;28;20040;-87
2022/01/23 06:21:29;;;;;;;16.90;11.10;;;;;;;15.20;43.17;94465.44;4919061;29;20056;-88
2022/01/23 06:24:03;;;;;;;16.27;11.48;;;;;;;15.20;42.92;94461.94;4935432;28;20047;-87
2022/01/23 06:26:36;;;;;;;14.02;10.52;;;;;;;15.16;43.31;94477.72;4947784;28;20121;-86
2022/01/23 06:29:03;;;;;;;19.35;13.48;;;;;;;15.17;43.29;94474.53;4954009;28;20118;-87
2022/01/23 06:31:28;;;;;;;14.60;9.90;;;;;;;15.21;43.08;94482.53;4939473;28;20046;-88
2022/01/23 06:33:54;;;;;;;14.02;10.57;;;;;;;15.21;43.40;94479.81;4956278;28;20264;-88
2022/01/23 06:36:19;;;;;;;13.82;10.00;;;;;;;15.22;43.16;94486.75;4937166;28;20035;-87
2022/01/23 06:38:45;;;;;;;16.50;11.90;;;;;;;15.22;43.13;94484.78;4954449;28;20048;-87
2022/01/23 06:41:11;;;;;;;14.27;10.40;;;;;;;15.22;43.15;94481.31;4953714;28;20047;-87
2022/01/23 06:43:37;;;;;;;16.83;11.52;;;;;;;15.23;43.10;94485.53;4954746;28;20035;-88
2022/01/23 06:46:02;;;;;;;17.25;12.00;;;;;;;15.20;43.29;94484.50;4953065;28;20099;-86
2022/01/23 06:48:27;;;;;;;13.85;10.30;;;;;;;15.24;43.37;94490.53;4942811;28;20066;-86
2022/01/23 06:50:53;;;;;;;16.80;11.27;;;;;;;15.23;43.29;94501.88;4918930;29;20043;-87
2022/01/23 06:53:18;;;;;;;17.80;13.15;;;;;;;15.18;43.30;94506.00;4934818;28;20455;-88
2022/01/23 06:55:44;;;;;;;14.88;11.18;;;;;;;15.16;43.32;94511.16;4935771;28;20044;-87
2022/01/23 06:58:09;;;;;;;16.98;11.75;;;;;;;15.19;43.02;94518.41;4918514;29;20051;-88
2022/01/23 07:00:35;;;;;;;14.73;9.77;;;;;;;15.19;43.36;94521.13;4935373;28;20040;-88
2022/01/23 07:03:01;;;;;;;14.68;10.68;;;;;;;15.20;43.10;94525.34;4957606;28;20163;-87
2022/01/23 07:05:26;;;;;;;15.52;11.48;;;;;;;15.17;43.14;94528.25;4939959;28;20511;-87
2022/01/23 07:07:52;;;;;;;14.02;10.23;;;;;;;15.18;43.30;94530.50;4973914;28;20568;-87
2022/01/23 07:10:20;;;;;;;17.75;12.40;;;;;;;15.23;42.99;94535.31;4971152;28;20042;-87
2022/01/23 07:12:45;;;;;;;15.00;10.43;;;;;;;15.21;43.09;94532.31;4957184;28;20042;-88
2022/01/23 07:15:11;;;;;;;13.65;9.80;;;;;;;15.25;43.30;94543.03;4941237;28;20042;-87
2022/01/23 07:17:41;;;;;;;20.52;14.15;;;;;;;15.20;43.21;94546.38;4954221;28;20564;-87
2022/01/23 07:20:07;;;;;;;14.60;10.43;;;;;;;15.14;43.34;94538.13;4940751;28;20398;-88
2022/01/23 07:22:32;;;;;;;17.00;11.68;;;;;;;15.16;42.85;94538.38;4955951;28;20102;-87
2022/01/23 07:25:02;;;;;;;13.35;9.88;;;;;;;15.13;43.67;94536.59;4957442;28;20631;-88
2022/01/23 07:27:31;;;;;;;16.03;10.63;;;;;;;15.21;43.53;94545.16;4957840;28;20463;-87
2022/01/23 07:29:56;;;;;;;20.02;13.65;;;;;;;15.28;43.10;94550.28;4957157;28;20047;-86
2022/01/23 07:32:22;;;;;;;17.02;11.48;;;;;;;15.23;43.27;94537.28;4939780;28;20053;-87
2022/01/23 07:34:47;;;;;;;21.58;13.60;;;;;;;15.19;43.17;94536.72;4956313;28;20035;-87
2022/01/23 07:37:14;;;;;;;15.40;10.82;;;;;;;15.20;43.17;94549.09;4940409;28;20039;-87
2022/01/23 07:39:40;;;;;;;15.00;10.93;;;;;;;15.23;43.18;94545.47;4940257;28;20043;-87
2022/01/23 07:42:06;;;;;;;15.38;10.43;;;;;;;15.23;43.21;94551.66;4955415;28;20046;-87
2022/01/23 07:44:31;;;;;;;14.68;10.07;;;;;;;15.20;43.27;94547.13;4956010;28;20031;-87
2022/01/23 07:46:56;;;;;;;13.65;10.07;;;;;;;15.17;43.21;94539.13;4973841;28;20062;-87
2022/01/23 07:49:22;;;;;;;15.00;10.55;;;;;;;15.21;43.20;94556.06;4955314;28;20046;-87
2022/01/23 07:51:47;;;;;;;17.63;11.43;;;;;;;15.20;43.29;94558.03;4972766;28;20502;-87
2022/01/23 07:54:13;;;;;;;13.02;9.52;;;;;;;15.22;43.61;94563.03;4973018;28;20042;-87
2022/01/23 07:56:42;;;;;;;16.85;10.98;;;;;;;15.27;43.18;94552.25;4956379;28;20043;-88
2022/01/23 07:59:09;;;;;;;15.45;11.13;;;;;;;15.22;43.41;94552.88;4957352;28;20054;-87
2022/01/23 08:01:36;;;;;;;15.48;10.18;;;;;;;15.25;43.18;94553.94;4957043;28;20046;-87
2022/01/23 08:04:01;;;;;;;13.85;9.38;;;;;;;15.21;43.14;94561.50;4963245;28;20474;-88
2022/01/23 08:06:32;;;;;;;14.65;10.52;;;;;;;15.23;43.19;94562.56;4940486;28;20031;-87
2022/01/23 08:08:57;;;;;;;18.65;13.50;;;;;;;15.27;43.02;94567.84;4942038;28;20526;-88
2022/01/23 08:11:22;;;;;;;16.73;11.50;;;;;;;15.23;43.14;94564.53;4958868;28;20089;-86
2022/01/23 08:13:48;;;;;;;15.38;11.15;;;;;;;15.23;43.24;94572.72;4961101;28;20089;-87
2022/01/23 08:16:14;;;;;;;14.27;10.18;;;;;;;15.22;43.25;94577.41;4977462;28;20031;-87
2022/01/23 08:18:41;;;;;;;13.57;10.38;;;;;;;15.19;43.21;94583.75;4959735;28;20494;-87
2022/01/23 08:21:07;;;;;;;14.05;10.13;;;;;;;15.19;43.22;94589.22;4943692;28;20031;-88
2022/01/23 08:23:33;;;;;;;12.60;9.93;;;;;;;15.22;43.28;94563.03;4944688;28;20046;-86
2022/01/23 08:25:58;;;;;;;13.90;10.77;;;;;;;15.20;43.22;94558.03;4927469;28;20047;-87
2022/01/23 08:28:24;;;;;;;18.58;13.63;;;;;;;15.21;43.26;94561.50;4942780;28;20070;-86
2022/01/23 08:30:49;;;;;;;16.10;10.43;;;;;;;15.26;43.18;94566.34;4926564;28;20047;-87
2022/01/23 08:33:15;;;;;;;16.88;11.77;;;;;;;15.21;43.25;94566.97;4958085;28;20035;-86
2022/01/23 08:35:43;;;;;;;15.88;11.27;;;;;;;15.19;43.40;94561.97;4942166;28;20030;-87
2022/01/23 08:38:09;;;;;;;17.60;11.93;;;;;;;15.19;43.08;94566.66;4942497;28;20042;-87
2022/01/23 08:43:11;;;;;;;11.73;9.00;;;;;;;15.24;43.45;94555.16;4959395;28;20039;-87
2022/01/23 08:45:37;;;;;;;14.73;11.13;;;;;;;15.23;43.34;94578.91;4958678;28;20106;-86
2022/01/23 08:48:03;;;;;;;16.40;11.65;;;;;;;15.25;43.13;94573.00;4958171;28;20144;-88
2022/01/23 08:50:29;;;;;;;15.65;10.30;;;;;;;15.26;43.10;94571.78;4990713;28;20142;-86
2022/01/23 08:52:54;;;;;;;17.05;11.80;;;;;;;15.24;43.23;94572.25;4973421;28;20051;-87
2022/01/23 08:55:20;;;;;;;14.10;9.70;;;;;;;15.29;43.09;94573.59;4991026;28;20050;-87
2022/01/23 08:57:46;;;;;;;13.80;9.77;;;;;;;15.24;43.14;94568.78;4976575;28;20038;-87
2022/01/23 09:00:14;;;;;;;20.98;13.27;;;;;;;15.26;43.21;94571.78;4974170;28;20042;-85
2022/01/23 09:02:39;;;;;;;14.18;10.32;;;;;;;15.26;42.95;94571.78;4991408;28;20069;-87
2022/01/23 09:05:05;;;;;;;14.68;9.95;;;;;;;15.25;43.18;94564.81;4974731;28;20043;-86
2022/01/23 09:07:30;;;;;;;16.63;11.90;;;;;;;15.31;43.08;94576.59;4942179;28;20031;-87
2022/01/23 09:10:01;;;;;;;14.65;10.48;;;;;;;15.22;43.29;94577.41;4974778;28;20063;-87
2022/01/23 09:15:05;;;;;;;17.67;11.13;;;;;;;15.30;43.03;94577.81;4958439;28;19922;-88
2022/01/23 09:17:30;;;;;;;16.00;11.13;;;;;;;15.29;42.97;94579.78;4958333;28;20038;-86
2022/01/23 09:19:55;;;;;;;17.55;12.02;;;;;;;15.22;43.06;94582.84;4958075;28;20039;-87
2022/01/23 09:22:21;;;;;;;15.07;10.30;;;;;;;15.27;43.04;94579.50;4940839;28;20430;-88
2022/01/23 09:24:46;;;;;;;12.73;9.48;;;;;;;15.26;43.18;94575.25;4957774;28;20063;-87
2022/01/23 09:27:18;;;;;;;14.20;10.23;;;;;;;15.30;43.09;94586.00;4957640;28;20042;-86
2022/01/23 09:29:47;;;;;;;16.05;11.38;;;;;;;15.31;43.01;94582.81;4959378;28;20042;-86
2022/01/23 09:32:13;;;;;;;13.60;9.65;;;;;;;15.32;43.14;94575.41;4926752;28;20101;-86
2022/01/23 09:34:39;;;;;;;12.73;9.65;;;;;;;15.29;43.20;94570.88;4942230;28;20039;-87
2022/01/23 09:37:07;;;;;;;12.68;9.77;;;;;;;15.29;42.95;94573.59;4941592;28;20035;-86
2022/01/23 09:39:33;;;;;;;14.30;11.05;;;;;;;15.29;43.48;94576.31;4957115;28;20054;-87
2022/01/23 09:42:07;;;;;;;14.88;10.45;;;;;;;15.29;43.22;94587.97;4953820;28;20051;-86
2022/01/23 09:44:44;;;;;;;14.00;10.32;;;;;;;15.30;43.02;94581.31;4955893;28;20035;-86
2022/01/23 09:47:13;;;;;;;16.83;11.30;;;;;;;15.26;43.13;94588.13;4940815;28;20490;-86
2022/01/23 09:49:38;;;;;;;17.13;12.80;;;;;;;15.29;43.29;94601.59;4955964;28;20045;-87
2022/01/23 09:52:04;;;;;;;14.70;10.23;;;;;;;15.27;43.13;94597.81;4940020;28;20043;-87
2022/01/23 09:54:30;;;;;;;13.95;10.75;;;;;;;15.30;43.01;94600.38;4940505;28;20034;-86
2022/01/23 09:57:05;;;;;;;15.77;11.10;;;;;;;15.35;43.08;94610.66;4944064;28;20035;-86
2022/01/23 09:59:31;;;;;;;16.95;12.07;;;;;;;15.34;43.07;94606.41;4939571;28;20031;-86
2022/01/23 10:01:56;;;;;;;21.10;13.82;;;;;;;15.33;42.88;94617.78;4955571;28;20050;-86
2022/01/23 10:04:23;;;;;;;14.68;10.77;;;;;;;15.33;43.22;94625.94;4947845;28;20043;-86
2022/01/23 10:06:48;;;;;;;16.13;11.82;;;;;;;15.27;43.13;94620.38;4957697;28;20046;-86
2022/01/23 10:09:14;;;;;;;17.08;12.00;;;;;;;15.31;43.09;94617.47;4973530;28;20525;-87
2022/01/23 10:11:43;;;;;;;14.95;11.20;;;;;;;15.32;43.12;94616.25;4959914;28;20375;-87
2022/01/23 10:14:08;;;;;;;16.80;11.45;;;;;;;15.33;43.08;94615.03;4960348;28;20126;-86
2022/01/23 10:16:34;;;;;;;15.25;11.15;;;;;;;15.29;43.27;94628.81;4957877;28;20058;-86
2022/01/23 10:19:01;;;;;;;17.40;10.98;;;;;;;15.38;42.97;94617.13;4954085;28;20043;-86
2022/01/23 10:21:27;;;;;;;16.05;11.50;;;;;;;15.37;43.04;94610.19;4930863;28;20921;-86
2022/01/23 10:23:53;;;;;;;14.52;10.73;;;;;;;15.37;43.09;94610.19;4949235;28;20054;-86
2022/01/23 10:26:54;;;;;;;18.23;11.35;;;;;;;15.35;42.93;94615.34;4955877;28;20051;-87
2022/01/23 10:29:28;;;;;;;15.05;10.43;;;;;;;15.33;43.04;94618.53;4844170;29;20076;-86
2022/01/23 10:32:20;;;;;;;14.23;10.32;;;;;;;15.32;42.94;94614.28;4861067;29;20140;-86
2022/01/23 10:34:55;;;;;;;14.43;10.57;;;;;;;15.30;43.07;94614.00;4860194;29;20066;-85
2022/01/23 10:37:28;;;;;;;19.08;14.30;;;;;;;15.34;43.11;94611.09;4876337;29;20166;-87
2022/01/23 10:39:54;;;;;;;17.52;11.80;;;;;;;15.34;43.00;94605.66;4829924;29;20796;-87
2022/01/23 10:42:52;;;;;;;13.45;10.48;;;;;;;15.33;43.01;94598.69;4876881;29;20052;-86
2022/01/23 10:48:25;;;;;;;15.48;10.55;;;;;;;15.33;43.11;94610.34;4874478;29;20064;-86
2022/01/23 10:51:11;;;;;;;15.50;10.93;;;;;;;15.36;43.08;94608.69;4874871;29;20052;-87
2022/01/23 10:54:13;;;;;;;14.75;10.18;;;;;;;15.29;43.44;94609.75;4866648;29;20041;-86
2022/01/23 10:56:53;;;;;;;13.98;11.18;;;;;;;15.30;43.17;94600.38;4862602;29;20288;-88
2022/01/23 10:59:18;;;;;;;15.02;10.80;;;;;;;15.35;43.07;94607.94;4861776;29;20048;-86
2022/01/23 11:02:07;;;;;;;14.73;10.75;;;;;;;15.29;43.24;94607.03;4846927;29;20094;-88
2022/01/23 11:04:59;;;;;;;13.93;10.63;;;;;;;15.30;43.22;94613.25;4877647;28;20069;-87
2022/01/23 11:07:26;;;;;;;13.98;10.27;;;;;;;15.27;43.18;94609.47;4963975;28;20049;-87
2022/01/23 11:10:05;;;;;;;15.05;10.75;;;;;;;15.24;43.38;94607.66;4958116;28;20389;-87
2022/01/23 11:12:46;;;;;;;15.48;10.13;;;;;;;15.28;43.09;94610.22;4963534;28;20524;-87
2022/01/23 11:17:59;;;;;;;15.02;11.23;;;;;;;15.31;43.23;94612.78;4961690;28;20070;-88
2022/01/23 11:20:35;;;;;;;15.63;11.38;;;;;;;15.28;43.30;94621.13;4976837;28;20054;-87
2022/01/23 11:23:11;;;;;;;15.38;11.07;;;;;;;15.21;43.39;94627.66;4960850;28;20054;-87
2022/01/23 11:25:39;;;;;;;15.75;10.60;;;;;;;15.24;43.55;94632.19;4943015;28;20097;-87
2022/01/23 11:28:05;;;;;;;13.63;10.23;;;;;;;15.32;43.27;94627.16;4941846;28;20614;-86
2022/01/23 11:30:40;;;;;;;14.57;10.63;;;;;;;15.29;43.29;94636.25;4942401;28;20030;-87
2022/01/23 11:33:08;;;;;;;13.10;9.73;;;;;;;15.31;43.16;94631.09;4942344;28;20125;-86
2022/01/23 11:35:34;;;;;;;14.23;10.45;;;;;;;15.28;43.31;94640.19;4957307;28;20042;-87
2022/01/23 11:38:00;;;;;;;15.00;10.68;;;;;;;15.27;43.29;94619.59;4954743;28;20115;-87
2022/01/23 11:40:35;;;;;;;;;;;;;;;;;;;;;
2022/01/23 11:53:44;;;;;;;15.50;10.48;;;;;;;15.34;43.27;94613.84;4949964;28;20117;-87
2022/01/23 11:54:06;;;;;;;14.90;11.23;;;;;;;15.34;43.19;94619.28;4964778;28;20050;-87
2022/01/23 11:56:36;;;;;;;15.15;10.68;;;;;;;15.37;43.12;94616.38;4961156;28;20043;-87
2022/01/23 11:59:18;;;;;;;13.32;10.18;;;;;;;15.34;43.00;94611.88;4945499;28;20058;-87
2022/01/23 12:01:45;;;;;;;14.40;10.27;;;;;;;15.28;43.51;94602.03;4963379;28;20062;-88
2022/01/23 12:04:18;;;;;;;12.50;9.70;;;;;;;15.32;43.25;94597.94;4960272;28;20126;-87
2022/01/23 12:07:06;;;;;;;15.07;10.00;;;;;;;15.32;43.46;94591.75;4946877;28;20042;-87
2022/01/23 12:09:32;;;;;;;14.35;10.32;;;;;;;15.31;43.31;94591.00;4931526;28;20039;-87
2022/01/23 12:17:18;;;;;;;13.65;10.23;;;;;;;15.32;43.21;94587.03;4959992;28;20043;-87
2022/01/23 12:19:48;;;;;;;13.95;10.05;;;;;;;15.32;43.14;94578.88;4945348;28;20038;-88
2022/01/23 12:22:26;;;;;;;12.15;9.13;;;;;;;15.32;43.40;94580.84;4944689;28;20043;-87
2022/01/23 12:24:55;;;;;;;12.70;9.52;;;;;;;15.37;43.34;94588.38;4960732;28;20538;-88
2022/01/23 12:27:30;;;;;;;14.27;10.50;;;;;;;15.33;43.17;94574.19;4959396;28;20111;-88
2022/01/23 12:30:09;;;;;;;13.45;9.13;;;;;;;15.32;43.33;94570.69;4946851;28;20046;-88
2022/01/23 12:32:35;;;;;;;13.40;9.50;;;;;;;15.33;43.36;94574.94;4945298;28;20031;-87
2022/01/23 12:35:02;;;;;;;13.52;9.85;;;;;;;15.36;43.14;94570.53;4943728;28;20103;-87
2022/01/23 12:38:00;;;;;;;14.15;10.23;;;;;;;15.32;43.28;94569.94;4943794;28;20038;-88
2022/01/23 12:40:37;;;;;;;13.93;10.40;;;;;;;15.34;43.21;94571.00;4976191;28;20039;-88
2022/01/23 12:43:08;;;;;;;14.10;10.10;;;;;;;15.33;43.22;94577.66;4959673;28;20402;-87
2022/01/23 12:46:05;;;;;;;13.85;9.73;;;;;;;15.32;43.27;94567.97;4945379;28;20336;-88
2022/01/23 12:48:33;;;;;;;12.35;9.52;;;;;;;15.34;43.27;94575.69;4959260;28;20046;-88
2022/01/23 12:51:00;;;;;;;13.88;9.95;;;;;;;15.36;43.40;94573.25;4976449;28;20042;-88
2022/01/23 12:53:45;;;;;;;13.35;9.57;;;;;;;15.35;43.37;94572.50;4958954;28;20039;-87
2022/01/23 12:56:21;;;;;;;14.35;9.85;;;;;;;15.38;43.18;94568.84;4959316;28;20039;-87
2022/01/23 12:58:50;;;;;;;14.00;9.80;;;;;;;15.34;43.05;94568.28;4944178;28;20125;-87
2022/01/23 13:01:23;;;;;;;16.13;10.43;;;;;;;15.31;43.15;94577.38;4939467;28;20044;-87
2022/01/23 13:03:57;;;;;;;14.38;10.27;;;;;;;15.33;43.29;94568.72;4938945;28;20050;-87
2022/01/23 13:06:29;;;;;;;12.02;9.23;;;;;;;15.31;43.35;94576.59;4938890;28;20047;-87
2022/01/23 13:09:30;;;;;;;13.05;9.07;;;;;;;15.36;43.24;94581.44;4956376;28;20035;-87
2022/01/23 13:12:06;;;;;;;13.85;9.63;;;;;;;15.36;43.14;94574.00;4943840;28;20046;-88
2022/01/23 13:14:46;;;;;;;12.75;9.50;;;;;;;15.33;43.41;94577.66;4957054;28;20031;-88
2022/01/23 13:26:23;;;;;;;11.60;8.98;;;;;;;15.33;43.22;94576.91;4956348;28;20070;-87
2022/01/23 13:30:32;;;;;;;14.90;9.70;;;;;;;15.33;43.01;94583.09;4953392;28;20047;-88
2022/01/23 13:33:11;;;;;;;12.23;9.05;;;;;;;15.38;42.88;94578.97;4940270;29;20040;-87
2022/01/23 13:35:39;;;;;;;11.30;8.23;;;;;;;15.36;43.03;94571.28;4940988;28;20186;-87
2022/01/23 13:38:10;;;;;;;11.02;9.40;;;;;;;15.32;43.44;94569.94;4938860;28;20062;-87
2022/01/23 13:40:40;;;;;;;12.23;9.27;;;;;;;15.37;43.24;94567.31;4955742;28;20043;-87
2022/01/23 13:59:33;;;;;;;13.10;9.57;;;;;;;15.36;43.29;94556.91;4913715;29;20043;-87
2022/01/23 14:04:31;;;;;;;10.77;8.55;;;;;;;15.33;43.27;94546.94;4898274;29;20043;-87
2022/01/23 14:06:56;;;;;;;11.60;8.80;;;;;;;15.33;43.23;94553.13;4907278;29;20060;-86
2022/01/23 14:09:24;;;;;;;11.80;8.73;;;;;;;15.29;43.35;94552.56;4897337;29;20388;-87
2022/01/23 14:11:49;;;;;;;13.75;8.25;;;;;;;15.27;43.44;94563.16;4882471;29;20044;-87
2022/01/23 14:14:25;;;;;;;12.13;9.25;;;;;;;15.30;43.30;94559.50;4913711;29;20420;-87
2022/01/23 14:16:52;;;;;;;12.15;9.07;;;;;;;15.36;43.20;94559.63;4897981;29;20060;-87
2022/01/23 14:19:25;;;;;;;10.93;8.50;;;;;;;15.37;43.30;94552.97;4897989;29;20040;-86
2022/01/23 14:21:52;;;;;;;10.82;8.23;;;;;;;15.36;42.97;94565.09;4899432;29;20135;-88
2022/01/23 14:24:31;;;;;;;12.35;9.13;;;;;;;15.34;43.29;94565.53;4913043;29;20063;-87
2022/01/23 14:27:08;;;;;;;12.10;9.13;;;;;;;15.33;43.14;94566.00;4898890;29;20105;-88
2022/01/23 14:29:50;;;;;;;9.70;8.18;;;;;;;15.36;43.13;94556.91;4882233;29;20036;-88
2022/01/23 14:32:41;;;;;;;12.20;8.57;;;;;;;15.34;43.46;94564.78;4899076;29;20149;-88
2022/01/23 14:35:11;;;;;;;11.98;7.57;;;;;;;15.35;43.04;94560.84;4903150;29;20122;-87
2022/01/23 14:37:37;;;;;;;12.23;8.35;;;;;;;15.34;43.21;94568.28;4954825;28;20102;-87
2022/01/23 14:40:26;;;;;;;12.18;9.23;;;;;;;15.34;43.00;94572.97;4937742;28;20039;-88
2022/01/23 14:43:09;;;;;;;10.88;8.75;;;;;;;15.32;43.28;94565.25;4954810;28;20042;-88
2022/01/23 14:45:43;;;;;;;10.32;8.55;;;;;;;15.37;43.05;94566.59;4939518;28;20118;-86
2022/01/23 14:48:10;;;;;;;11.35;9.07;;;;;;;15.39;43.25;94564.13;4954496;28;20074;-87
2022/01/23 14:50:39;;;;;;;11.35;8.55;;;;;;;15.36;43.00;94582.19;4926542;28;20047;-87
2022/01/23 14:53:06;;;;;;;10.05;7.75;;;;;;;15.37;43.25;94580.22;4933291;28;20043;-86